createdAt,value
2017-07-30T00:00:37.149Z,84.94
2017-07-30T00:01:37.168Z,85.09
2017-07-30T00:02:40.108Z,85.07
2017-07-30T00:03:37.126Z,84.81
2017-07-30T00:04:37.337Z,84.54
2017-07-30T00:05:37.353Z,84.17
2017-07-30T00:06:37.470Z,84.88
2017-07-30T00:07:37.391Z,84.13
2017-07-30T00:08:37.411Z,84.11
2017-07-30T00:09:37.334Z,84.07
2017-07-30T00:10:37.355Z,84.19
2017-07-30T00:11:37.388Z,83.74
2017-07-30T00:12:37.355Z,84.36
2017-07-30T00:13:37.384Z,83.96
2017-07-30T00:14:37.403Z,84.32
2017-07-30T00:15:37.621Z,84.07
2017-07-30T00:16:37.144Z,83.82
2017-07-30T00:17:37.171Z,83.51
2017-07-30T00:18:37.186Z,84.26
2017-07-30T00:19:37.212Z,84.36
2017-07-30T00:20:37.125Z,86.06
2017-07-30T00:21:37.236Z,85.95
2017-07-30T00:22:37.365Z,85.97
2017-07-30T00:23:37.376Z,86.65
2017-07-30T00:24:37.398Z,86.30
2017-07-30T00:25:37.342Z,86.03
2017-07-30T00:26:37.353Z,86.35
2017-07-30T00:27:37.476Z,86.08
2017-07-30T00:28:37.447Z,87.04
2017-07-30T00:29:37.159Z,86.94
2017-07-30T00:30:37.595Z,86.71
2017-07-30T00:31:37.241Z,87.01
2017-07-30T00:32:37.254Z,86.94
2017-07-30T00:33:37.276Z,86.79
2017-07-30T00:34:37.204Z,87.09
2017-07-30T00:35:37.222Z,86.98
2017-07-30T00:36:37.234Z,87.10
2017-07-30T00:37:37.264Z,87.18
2017-07-30T00:38:37.483Z,87.67
2017-07-30T00:39:37.396Z,87.32
2017-07-30T00:40:37.526Z,86.85
2017-07-30T00:41:37.378Z,86.78
2017-07-30T00:42:37.447Z,87.67
2017-07-30T00:43:37.570Z,87.32
2017-07-30T00:44:37.510Z,87.09
2017-07-30T00:45:37.463Z,86.92
2017-07-30T00:46:37.273Z,86.70
2017-07-30T00:47:37.289Z,86.39
2017-07-30T00:48:37.244Z,86.82
2017-07-30T00:49:37.271Z,86.96
2017-07-30T00:50:37.285Z,86.44
2017-07-30T00:51:37.304Z,87.05
2017-07-30T00:52:37.352Z,86.90
2017-07-30T00:53:37.261Z,87.79
2017-07-30T00:54:37.637Z,87.16
2017-07-30T00:55:37.447Z,87.76
2017-07-30T00:56:37.467Z,87.93
2017-07-30T00:57:37.487Z,88.02
2017-07-30T00:58:37.523Z,88.37
2017-07-30T00:59:37.446Z,88.59
2017-07-30T01:02:38.925Z,88.57
2017-07-30T01:02:39.734Z,88.79
2017-07-30T01:02:40.345Z,88.07
2017-07-30T01:05:46.600Z,88.48
2017-07-30T01:05:47.676Z,88.10
2017-07-30T01:05:49.122Z,88.25
2017-07-30T01:08:33.582Z,88.12
2017-07-30T01:08:34.383Z,87.54
2017-07-30T01:08:37.321Z,87.83
2017-07-30T01:11:47.944Z,87.33
2017-07-30T01:11:49.296Z,87.94
2017-07-30T01:11:50.767Z,87.50
2017-07-30T01:14:21.417Z,87.49
2017-07-30T01:14:22.426Z,87.03
2017-07-30T01:14:37.355Z,86.87
2017-07-30T01:17:47.335Z,86.85
2017-07-30T01:17:48.477Z,86.96
2017-07-30T01:17:49.813Z,86.82
2017-07-30T01:20:26.466Z,86.60
2017-07-30T01:20:27.075Z,86.70
2017-07-30T01:20:37.397Z,86.56
2017-07-30T01:23:50.069Z,86.61
2017-07-30T01:23:51.674Z,86.67
2017-07-30T01:23:52.523Z,87.21
2017-07-30T01:26:32.464Z,86.62
2017-07-30T01:26:33.301Z,86.66
2017-07-30T01:26:37.314Z,86.37
2017-07-30T01:29:47.281Z,86.37
2017-07-30T01:29:48.889Z,86.45
2017-07-30T01:29:50.098Z,86.31
2017-07-30T01:33:05.532Z,86.06
2017-07-30T01:33:06.656Z,85.81
2017-07-30T01:33:07.348Z,85.46
2017-07-30T01:35:50.726Z,85.48
2017-07-30T01:35:52.378Z,85.37
2017-07-30T01:35:53.092Z,85.15
2017-07-30T01:39:03.380Z,85.33
2017-07-30T01:39:04.286Z,85.27
2017-07-30T01:39:04.892Z,85.26
2017-07-30T01:41:51.805Z,85.39
2017-07-30T01:41:52.878Z,85.62
2017-07-30T01:41:53.485Z,85.44
2017-07-30T01:44:38.570Z,85.43
2017-07-30T01:44:39.386Z,85.50
2017-07-30T01:44:40.185Z,85.35
2017-07-30T01:47:51.836Z,85.70
2017-07-30T01:47:52.956Z,85.30
2017-07-30T01:47:53.563Z,84.96
2017-07-30T01:50:27.786Z,85.74
2017-07-30T01:50:28.918Z,85.83
2017-07-30T01:50:37.439Z,85.30
2017-07-30T01:53:44.371Z,85.91
2017-07-30T01:53:45.378Z,85.42
2017-07-30T01:53:46.084Z,85.38
2017-07-30T01:56:34.573Z,85.90
2017-07-30T01:56:35.485Z,85.84
2017-07-30T01:56:37.395Z,85.86
2017-07-30T01:59:50.722Z,85.88
2017-07-30T01:59:51.952Z,85.59
2017-07-30T01:59:52.962Z,85.60
2017-07-30T02:00:37.476Z,85.48
2017-07-30T02:01:37.691Z,85.36
2017-07-30T02:02:37.709Z,85.27
2017-07-30T02:03:37.728Z,85.66
2017-07-30T02:04:37.769Z,85.66
2017-07-30T02:05:37.708Z,85.88
2017-07-30T02:06:37.533Z,85.59
2017-07-30T02:07:37.459Z,85.13
2017-07-30T02:08:37.467Z,85.67
2017-07-30T02:09:37.481Z,85.67
2017-07-30T02:10:37.597Z,85.43
2017-07-30T02:11:37.511Z,85.37
2017-07-30T02:12:37.526Z,85.99
2017-07-30T02:13:37.830Z,85.54
2017-07-30T02:14:37.742Z,85.55
2017-07-30T02:15:37.761Z,85.85
2017-07-30T02:16:37.677Z,85.42
2017-07-30T02:17:37.794Z,85.71
2017-07-30T02:18:37.736Z,85.66
2017-07-30T02:19:37.778Z,85.62
2017-07-30T02:20:37.824Z,85.91
2017-07-30T02:21:37.756Z,85.45
2017-07-30T02:22:37.570Z,86.04
2017-07-30T02:23:37.496Z,85.56
2017-07-30T02:24:37.502Z,85.62
2017-07-30T02:25:37.560Z,85.78
2017-07-30T02:26:37.572Z,86.19
2017-07-30T02:27:37.586Z,86.30
2017-07-30T02:28:37.599Z,86.58
2017-07-30T02:29:37.510Z,86.44
2017-07-30T02:30:37.735Z,86.59
2017-07-30T02:31:37.758Z,86.78
2017-07-30T02:32:37.773Z,86.76
2017-07-30T02:33:37.826Z,86.75
2017-07-30T02:34:37.746Z,86.80
2017-07-30T02:35:37.768Z,86.89
2017-07-30T02:36:37.886Z,86.52
2017-07-30T02:37:37.828Z,86.51
2017-07-30T02:38:37.630Z,86.37
2017-07-30T02:39:37.575Z,86.54
2017-07-30T02:40:37.558Z,86.80
2017-07-30T02:41:37.568Z,86.39
2017-07-30T02:42:37.581Z,86.27
2017-07-30T02:43:37.524Z,86.31
2017-07-30T02:44:37.559Z,86.29
2017-07-30T02:45:37.815Z,86.36
2017-07-30T02:46:37.837Z,86.18
2017-07-30T02:47:37.778Z,86.28
2017-07-30T02:48:37.785Z,86.56
2017-07-30T02:49:37.920Z,86.37
2017-07-30T02:50:37.772Z,85.82
2017-07-30T02:51:37.803Z,85.99
2017-07-30T02:52:37.834Z,86.11
2017-07-30T02:53:37.549Z,86.33
2017-07-30T02:54:37.567Z,85.78
2017-07-30T02:55:37.680Z,86.04
2017-07-30T02:56:37.600Z,86.50
2017-07-30T02:57:37.624Z,86.19
2017-07-30T02:58:37.657Z,86.05
2017-07-30T02:59:37.579Z,86.12
2017-07-30T03:00:37.919Z,86.50
2017-07-30T03:01:37.830Z,86.29
2017-07-30T03:02:37.840Z,86.27
2017-07-30T03:03:37.859Z,86.58
2017-07-30T03:04:37.903Z,86.54
2017-07-30T03:05:37.904Z,86.78
2017-07-30T03:06:37.842Z,86.84
2017-07-30T03:07:37.953Z,87.26
2017-07-30T03:08:37.868Z,87.08
2017-07-30T03:09:37.687Z,87.54
2017-07-30T03:10:37.715Z,87.45
2017-07-30T03:11:37.629Z,87.40
2017-07-30T03:12:37.739Z,87.35
2017-07-30T03:13:37.650Z,87.69
2017-07-30T03:14:37.668Z,87.80
2017-07-30T03:15:37.776Z,87.54
2017-07-30T03:16:37.689Z,87.31
2017-07-30T03:17:37.913Z,87.94
2017-07-30T03:18:37.947Z,87.76
2017-07-30T03:19:37.873Z,87.72
2017-07-30T03:20:37.906Z,87.74
2017-07-30T03:21:37.935Z,88.06
2017-07-30T03:22:37.875Z,87.33
2017-07-30T03:23:37.882Z,87.65
2017-07-30T03:24:37.898Z,88.00
2017-07-30T03:25:37.672Z,87.75
2017-07-30T03:26:37.689Z,88.28
2017-07-30T03:27:37.698Z,87.74
2017-07-30T03:28:37.720Z,87.85
2017-07-30T03:29:37.756Z,87.75
2017-07-30T03:30:37.688Z,88.25
2017-07-30T03:31:37.692Z,88.39
2017-07-30T03:32:37.727Z,88.70
2017-07-30T03:33:38.034Z,88.37
2017-07-30T03:34:37.946Z,88.60
2017-07-30T03:35:37.960Z,89.82
2017-07-30T03:36:37.874Z,88.67
2017-07-30T03:37:38.015Z,88.28
2017-07-30T03:38:37.958Z,88.55
2017-07-30T03:39:38.008Z,89.18
2017-07-30T03:40:37.718Z,89.32
2017-07-30T03:41:37.727Z,88.72
2017-07-30T03:42:37.734Z,88.69
2017-07-30T03:43:37.745Z,88.31
2017-07-30T03:44:37.752Z,87.85
2017-07-30T03:45:37.770Z,88.32
2017-07-30T03:46:37.784Z,89.48
2017-07-30T03:47:37.797Z,88.77
2017-07-30T03:48:37.804Z,88.42
2017-07-30T03:49:37.817Z,88.06
2017-07-30T03:50:38.032Z,88.16
2017-07-30T03:51:37.947Z,88.38
2017-07-30T03:52:38.058Z,88.31
2017-07-30T03:53:38.073Z,88.53
2017-07-30T03:54:38.076Z,88.14
2017-07-30T03:55:38.092Z,88.16
2017-07-30T03:56:38.043Z,88.21
2017-07-30T03:57:37.757Z,87.80
2017-07-30T04:00:16.452Z,87.88
2017-07-30T04:00:17.263Z,87.60
2017-07-30T04:00:37.807Z,87.49
2017-07-30T04:01:38.019Z,87.00
2017-07-30T04:02:38.038Z,87.47
2017-07-30T04:03:38.045Z,87.68
2017-07-30T04:04:38.057Z,87.33
2017-07-30T04:05:38.079Z,86.93
2017-07-30T04:06:38.026Z,87.37
2017-07-30T04:07:38.037Z,86.86
2017-07-30T04:08:38.050Z,87.49
2017-07-30T04:09:38.179Z,87.18
2017-07-30T04:10:38.090Z,87.33
2017-07-30T04:11:38.049Z,87.03
2017-07-30T04:12:38.162Z,86.79
2017-07-30T04:13:37.869Z,86.55
2017-07-30T04:14:37.882Z,86.50
2017-07-30T04:15:37.897Z,86.21
2017-07-30T04:16:37.914Z,86.49
2017-07-30T04:17:37.839Z,86.06
2017-07-30T04:18:37.852Z,86.11
2017-07-30T04:19:37.861Z,86.22
2017-07-30T04:20:38.079Z,85.91
2017-07-30T04:21:38.097Z,85.50
2017-07-30T04:22:38.112Z,85.95
2017-07-30T04:23:38.046Z,85.89
2017-07-30T04:24:38.065Z,85.78
2017-07-30T04:25:38.078Z,85.64
2017-07-30T04:26:38.089Z,85.56
2017-07-30T04:27:38.115Z,85.91
2017-07-30T04:28:37.861Z,86.35
2017-07-30T04:29:37.887Z,85.72
2017-07-30T04:30:37.912Z,85.36
2017-07-30T04:31:37.940Z,85.16
2017-07-30T04:32:37.855Z,85.38
2017-07-30T04:33:37.866Z,85.15
2017-07-30T04:34:37.892Z,85.09
2017-07-30T04:35:37.908Z,84.90
2017-07-30T04:36:37.921Z,85.70
2017-07-30T04:37:38.152Z,85.54
2017-07-30T04:38:38.162Z,84.63
2017-07-30T04:39:38.181Z,85.38
2017-07-30T04:40:38.101Z,85.55
2017-07-30T04:41:38.111Z,84.53
2017-07-30T04:42:38.118Z,84.52
2017-07-30T04:43:38.243Z,84.58
2017-07-30T04:44:38.166Z,83.79
2017-07-30T04:45:37.992Z,84.44
2017-07-30T04:46:37.916Z,83.29
2017-07-30T04:47:37.935Z,84.17
2017-07-30T04:48:37.958Z,84.05
2017-07-30T04:49:37.969Z,84.29
2017-07-30T04:50:37.941Z,83.84
2017-07-30T04:51:37.955Z,82.96
2017-07-30T04:52:37.980Z,83.86
2017-07-30T04:53:37.927Z,83.34
2017-07-30T04:54:38.135Z,82.89
2017-07-30T04:55:38.144Z,81.75
2017-07-30T04:56:38.166Z,81.77
2017-07-30T04:57:38.216Z,80.94
2017-07-30T04:58:38.163Z,82.35
2017-07-30T04:59:38.199Z,81.83
2017-07-30T05:00:38.211Z,81.48
2017-07-30T05:01:37.924Z,81.65
2017-07-30T05:02:38.038Z,81.33
2017-07-30T05:03:37.962Z,80.59
2017-07-30T05:04:37.986Z,80.34
2017-07-30T05:05:38.049Z,80.99
2017-07-30T05:06:37.997Z,80.37
2017-07-30T05:07:38.032Z,80.74
2017-07-30T05:08:38.308Z,80.58
2017-07-30T05:09:38.224Z,79.08
2017-07-30T05:10:38.191Z,79.12
2017-07-30T05:11:38.379Z,80.05
2017-07-30T05:12:38.238Z,79.05
2017-07-30T05:13:38.249Z,78.88
2017-07-30T05:14:38.252Z,77.96
2017-07-30T05:15:38.308Z,78.60
2017-07-30T05:16:38.021Z,78.46
2017-07-30T05:17:38.086Z,78.67
2017-07-30T05:18:38.065Z,78.12
2017-07-30T05:19:38.023Z,76.89
2017-07-30T05:20:38.001Z,76.47
2017-07-30T05:21:38.003Z,75.73
2017-07-30T05:22:38.049Z,76.65
2017-07-30T05:23:38.112Z,75.21
2017-07-30T05:24:38.067Z,75.26
2017-07-30T05:25:38.063Z,76.34
2017-07-30T05:26:38.253Z,74.31
2017-07-30T05:27:38.225Z,74.93
2017-07-30T05:28:38.288Z,74.59
2017-07-30T05:29:38.313Z,73.03
2017-07-30T05:30:38.356Z,73.46
2017-07-30T05:31:38.287Z,71.62
2017-07-30T05:32:38.295Z,71.64
2017-07-30T05:33:38.027Z,72.51
2017-07-30T05:34:38.055Z,72.77
2017-07-30T05:35:38.101Z,73.20
2017-07-30T05:36:38.054Z,73.60
2017-07-30T05:37:38.081Z,73.53
2017-07-30T05:38:38.118Z,75.41
2017-07-30T05:39:38.049Z,74.56
2017-07-30T05:40:38.114Z,75.81
2017-07-30T05:41:38.100Z,74.52
2017-07-30T05:42:38.369Z,75.61
2017-07-30T05:43:38.308Z,75.28
2017-07-30T05:44:38.345Z,74.79
2017-07-30T05:45:38.282Z,74.50
2017-07-30T05:46:38.391Z,73.56
2017-07-30T05:47:38.070Z,73.56
2017-07-30T05:48:38.115Z,73.37
2017-07-30T05:49:38.139Z,72.42
2017-07-30T05:50:38.128Z,71.88
2017-07-30T05:51:38.149Z,73.12
2017-07-30T05:52:38.188Z,73.88
2017-07-30T05:53:38.147Z,72.75
2017-07-30T05:54:38.162Z,71.42
2017-07-30T05:55:38.179Z,73.26
2017-07-30T05:56:38.308Z,72.13
2017-07-30T05:57:38.346Z,72.63
2017-07-30T05:58:38.375Z,72.12
2017-07-30T05:59:38.405Z,72.37
2017-07-30T06:00:38.432Z,71.98
2017-07-30T06:01:38.365Z,72.00
2017-07-30T06:02:38.387Z,72.54
2017-07-30T06:03:38.407Z,73.39
2017-07-30T06:04:38.425Z,73.42
2017-07-30T06:05:38.251Z,72.63
2017-07-30T06:06:38.165Z,73.65
2017-07-30T06:07:38.184Z,72.23
2017-07-30T06:08:38.108Z,72.33
2017-07-30T06:09:38.126Z,72.60
2017-07-30T06:10:38.154Z,73.15
2017-07-30T06:11:38.267Z,72.77
2017-07-30T06:12:38.235Z,72.52
2017-07-30T06:13:38.241Z,71.83
2017-07-30T06:14:38.467Z,73.91
2017-07-30T06:15:38.508Z,72.25
2017-07-30T06:16:38.447Z,73.63
2017-07-30T06:17:38.399Z,74.27
2017-07-30T06:18:38.380Z,74.42
2017-07-30T06:19:38.142Z,75.21
2017-07-30T06:20:38.574Z,76.76
2017-07-30T06:21:38.204Z,75.86
2017-07-30T06:22:38.321Z,75.08
2017-07-30T06:23:38.232Z,74.15
2017-07-30T06:24:38.155Z,74.61
2017-07-30T06:25:38.194Z,74.87
2017-07-30T06:26:38.208Z,75.10
2017-07-30T06:27:38.427Z,75.79
2017-07-30T06:28:38.446Z,76.17
2017-07-30T06:29:38.565Z,76.36
2017-07-30T06:30:38.585Z,76.01
2017-07-30T06:31:38.407Z,76.49
2017-07-30T06:32:38.440Z,75.96
2017-07-30T06:33:38.460Z,76.05
2017-07-30T06:34:38.482Z,75.89
2017-07-30T06:35:38.549Z,74.63
2017-07-30T06:36:38.218Z,74.40
2017-07-30T06:37:38.238Z,75.16
2017-07-30T06:38:38.275Z,76.00
2017-07-30T06:39:38.315Z,75.15
2017-07-30T06:40:38.250Z,75.18
2017-07-30T06:41:38.263Z,74.17
2017-07-30T06:42:38.299Z,73.91
2017-07-30T06:43:38.325Z,74.93
2017-07-30T06:44:38.269Z,74.82
2017-07-30T06:45:38.476Z,75.29
2017-07-30T06:46:38.632Z,74.74
2017-07-30T06:47:38.574Z,74.88
2017-07-30T06:48:38.487Z,75.61
2017-07-30T06:49:38.430Z,76.82
2017-07-30T06:50:38.475Z,76.30
2017-07-30T06:51:38.514Z,76.14
2017-07-30T06:52:38.241Z,75.48
2017-07-30T06:53:38.280Z,75.16
2017-07-30T06:54:38.398Z,74.91
2017-07-30T06:55:38.322Z,75.61
2017-07-30T06:56:38.431Z,75.81
2017-07-30T06:57:39.338Z,74.72
2017-07-30T06:58:38.403Z,74.29
2017-07-30T06:59:38.350Z,76.40
2017-07-30T07:00:39.607Z,74.46
2017-07-30T07:01:38.761Z,75.28
2017-07-30T07:02:38.348Z,74.48
2017-07-30T07:03:38.775Z,73.44
2017-07-30T07:04:38.594Z,74.47
2017-07-30T07:05:38.805Z,70.42
2017-07-30T07:06:38.532Z,71.94
2017-07-30T07:07:38.539Z,69.98
2017-07-30T07:08:38.336Z,69.02
2017-07-30T07:09:38.347Z,69.42
2017-07-30T07:10:38.367Z,67.22
2017-07-30T07:11:38.287Z,67.55
2017-07-30T07:12:38.387Z,68.82
2017-07-30T07:13:38.395Z,67.92
2017-07-30T07:14:38.306Z,65.04
2017-07-30T07:15:38.341Z,64.72
2017-07-30T07:16:38.377Z,67.02
2017-07-30T07:17:38.598Z,63.32
2017-07-30T07:18:38.612Z,63.66
2017-07-30T07:19:38.655Z,62.21
2017-07-30T07:20:38.583Z,63.07
2017-07-30T07:21:38.722Z,64.33
2017-07-30T07:22:38.546Z,62.14
2017-07-30T07:23:38.580Z,62.22
2017-07-30T07:24:38.412Z,62.52
2017-07-30T07:25:38.380Z,62.59
2017-07-30T07:26:38.417Z,63.85
2017-07-30T07:27:38.431Z,64.86
2017-07-30T07:28:38.450Z,65.45
2017-07-30T07:29:38.469Z,66.03
2017-07-30T07:30:38.426Z,66.31
2017-07-30T07:31:38.405Z,69.18
2017-07-30T07:32:38.651Z,66.18
2017-07-30T07:33:38.402Z,66.10
2017-07-30T07:34:38.719Z,66.30
2017-07-30T07:35:38.640Z,68.20
2017-07-30T07:36:38.570Z,66.33
2017-07-30T07:37:38.681Z,63.90
2017-07-30T07:38:38.614Z,64.28
2017-07-30T07:39:38.630Z,63.53
2017-07-30T07:40:38.755Z,64.05
2017-07-30T07:41:38.802Z,62.98
2017-07-30T07:42:38.769Z,62.19
2017-07-30T07:43:38.793Z,62.87
2017-07-30T07:44:38.516Z,63.16
2017-07-30T07:45:38.441Z,65.63
2017-07-30T07:46:38.449Z,64.91
2017-07-30T07:47:38.470Z,64.55
2017-07-30T07:48:38.480Z,65.13
2017-07-30T07:49:38.435Z,65.59
2017-07-30T07:50:38.455Z,64.37
2017-07-30T07:51:38.497Z,63.71
2017-07-30T07:52:38.710Z,63.16
2017-07-30T07:53:38.629Z,62.49
2017-07-30T07:54:38.654Z,64.09
2017-07-30T07:55:38.711Z,64.06
2017-07-30T07:56:38.737Z,65.55
2017-07-30T07:57:38.453Z,64.81
2017-07-30T07:58:38.485Z,61.54
2017-07-30T07:59:38.505Z,60.25
2017-07-30T08:00:38.530Z,61.38
2017-07-30T08:01:38.547Z,62.04
2017-07-30T08:02:38.477Z,62.33
2017-07-30T08:03:38.489Z,59.28
2017-07-30T08:04:38.498Z,60.58
2017-07-30T08:05:38.617Z,60.88
2017-07-30T08:06:38.528Z,58.19
2017-07-30T08:07:38.469Z,60.30
2017-07-30T08:08:38.805Z,60.17
2017-07-30T08:09:38.824Z,60.50
2017-07-30T08:10:39.008Z,62.79
2017-07-30T08:11:38.795Z,60.95
2017-07-30T08:12:38.742Z,60.18
2017-07-30T08:13:38.760Z,60.01
2017-07-30T08:14:38.525Z,58.73
2017-07-30T08:15:38.583Z,60.42
2017-07-30T08:16:38.521Z,57.23
2017-07-30T08:17:38.546Z,57.33
2017-07-30T08:18:38.594Z,58.99
2017-07-30T08:19:38.542Z,58.52
2017-07-30T08:20:38.575Z,59.88
2017-07-30T08:21:38.590Z,59.51
2017-07-30T08:22:38.558Z,60.39
2017-07-30T08:23:38.559Z,63.05
2017-07-30T08:24:38.812Z,58.91
2017-07-30T08:25:38.865Z,58.50
2017-07-30T08:26:38.801Z,56.95
2017-07-30T08:27:38.723Z,56.48
2017-07-30T08:28:39.253Z,59.70
2017-07-30T08:29:38.871Z,57.65
2017-07-30T08:30:38.794Z,55.88
2017-07-30T08:31:38.611Z,55.01
2017-07-30T08:32:38.557Z,56.75
2017-07-30T08:33:38.570Z,55.60
2017-07-30T08:34:38.600Z,56.29
2017-07-30T08:35:38.618Z,55.16
2017-07-30T08:36:38.558Z,53.82
2017-07-30T08:37:38.591Z,54.44
2017-07-30T08:38:38.604Z,57.28
2017-07-30T08:39:38.853Z,55.22
2017-07-30T08:40:38.793Z,53.68
2017-07-30T08:41:38.845Z,55.49
2017-07-30T08:42:38.774Z,54.59
2017-07-30T08:43:38.920Z,56.75
2017-07-30T08:44:38.860Z,53.73
2017-07-30T08:45:38.784Z,54.64
2017-07-30T08:46:39.005Z,55.53
2017-07-30T08:47:38.634Z,55.31
2017-07-30T08:48:38.654Z,53.22
2017-07-30T08:49:38.680Z,51.77
2017-07-30T08:50:38.633Z,50.98
2017-07-30T08:51:38.660Z,54.77
2017-07-30T08:52:38.685Z,54.52
2017-07-30T08:53:38.705Z,51.80
2017-07-30T08:54:38.626Z,50.74
2017-07-30T08:55:38.653Z,52.32
2017-07-30T08:56:38.975Z,52.94
2017-07-30T08:57:38.992Z,52.75
2017-07-30T08:58:38.815Z,51.27
2017-07-30T08:59:38.841Z,50.14
2017-07-30T09:00:42.762Z,51.39
2017-07-30T09:01:38.668Z,49.98
2017-07-30T09:02:38.902Z,48.88
2017-07-30T09:03:38.945Z,49.60
2017-07-30T09:04:38.681Z,48.64
2017-07-30T09:05:38.711Z,49.86
2017-07-30T09:06:39.248Z,49.06
2017-07-30T09:07:38.675Z,50.05
2017-07-30T09:08:38.708Z,49.41
2017-07-30T09:09:38.750Z,48.16
2017-07-30T09:10:38.698Z,48.91
2017-07-30T09:11:38.721Z,47.73
2017-07-30T09:12:38.743Z,48.68
2017-07-30T09:13:38.974Z,47.28
2017-07-30T09:14:38.902Z,47.03
2017-07-30T09:15:38.938Z,48.99
2017-07-30T09:16:39.057Z,48.57
2017-07-30T09:17:39.075Z,49.08
2017-07-30T09:18:38.912Z,49.79
2017-07-30T09:19:39.366Z,47.75
2017-07-30T09:20:38.736Z,47.08
2017-07-30T09:21:38.716Z,47.93
2017-07-30T09:22:38.858Z,47.83
2017-07-30T09:23:38.860Z,48.45
2017-07-30T09:24:38.744Z,46.42
2017-07-30T09:25:38.744Z,46.39
2017-07-30T09:26:38.754Z,45.38
2017-07-30T09:27:38.768Z,45.76
2017-07-30T09:28:39.174Z,47.58
2017-07-30T09:29:38.731Z,47.70
2017-07-30T09:30:39.100Z,47.53
2017-07-30T09:31:38.964Z,46.97
2017-07-30T09:32:39.013Z,48.39
2017-07-30T09:33:38.944Z,48.67
2017-07-30T09:35:54.314Z,48.29
2017-07-30T09:36:38.884Z,48.01
2017-07-30T09:37:39.001Z,48.23
2017-07-30T09:38:38.729Z,46.83
2017-07-30T09:39:38.865Z,49.53
2017-07-30T09:40:38.982Z,50.02
2017-07-30T09:41:38.800Z,45.58
2017-07-30T09:42:38.832Z,44.25
2017-07-30T09:43:38.757Z,43.36
2017-07-30T09:44:39.102Z,42.72
2017-07-30T09:47:51.126Z,43.34
2017-07-30T09:47:52.480Z,41.90
2017-07-30T09:47:53.184Z,42.43
2017-07-30T09:48:38.900Z,43.41
2017-07-30T09:51:23.386Z,42.22
2017-07-30T09:51:24.400Z,42.99
2017-07-30T09:51:38.762Z,43.93
2017-07-30T09:52:39.010Z,43.47
2017-07-30T09:53:38.830Z,42.37
2017-07-30T09:54:38.887Z,41.61
2017-07-30T09:55:38.899Z,40.69
2017-07-30T09:56:38.825Z,40.15
2017-07-30T09:57:38.884Z,39.12
2017-07-30T09:58:38.938Z,40.26
2017-07-30T09:59:39.834Z,39.36
2017-07-30T10:00:38.888Z,38.48
2017-07-30T10:01:39.086Z,39.69
2017-07-30T10:02:38.928Z,39.51
2017-07-30T10:03:39.108Z,41.80
2017-07-30T10:04:39.069Z,42.91
2017-07-30T10:05:39.434Z,42.03
2017-07-30T10:06:39.250Z,40.70
2017-07-30T10:07:39.124Z,41.31
2017-07-30T10:08:38.885Z,41.12
2017-07-30T10:09:38.880Z,41.89
2017-07-30T10:10:38.936Z,40.89
2017-07-30T10:11:38.924Z,39.37
2017-07-30T10:12:38.831Z,40.34
2017-07-30T10:13:38.985Z,39.53
2017-07-30T10:14:38.934Z,37.35
2017-07-30T10:15:39.089Z,38.15
2017-07-30T10:16:38.953Z,37.54
2017-07-30T10:17:38.914Z,39.12
2017-07-30T10:18:39.249Z,41.52
2017-07-30T10:19:39.270Z,40.25
2017-07-30T10:20:39.097Z,37.99
2017-07-30T10:21:39.247Z,44.20
2017-07-30T10:22:39.199Z,40.02
2017-07-30T10:23:39.133Z,38.14
2017-07-30T10:24:38.915Z,37.78
2017-07-30T10:25:38.903Z,39.43
2017-07-30T10:26:38.953Z,37.39
2017-07-30T10:27:39.001Z,39.23
2017-07-30T10:28:38.958Z,40.03
2017-07-30T10:29:38.881Z,38.81
2017-07-30T10:30:38.863Z,38.67
2017-07-30T10:31:39.006Z,37.54
2017-07-30T10:32:38.981Z,39.17
2017-07-30T10:33:38.933Z,38.41
2017-07-30T10:34:39.001Z,37.66
2017-07-30T10:35:39.323Z,38.17
2017-07-30T10:36:39.324Z,38.97
2017-07-30T10:37:39.220Z,38.91
2017-07-30T10:38:39.190Z,39.34
2017-07-30T10:39:39.243Z,39.14
2017-07-30T10:40:39.343Z,38.03
2017-07-30T10:41:38.961Z,36.84
2017-07-30T10:42:38.923Z,35.84
2017-07-30T10:43:38.963Z,37.39
2017-07-30T10:44:38.951Z,37.78
2017-07-30T10:45:39.036Z,39.28
2017-07-30T10:46:39.150Z,39.91
2017-07-30T10:47:38.949Z,40.75
2017-07-30T10:48:39.042Z,39.50
2017-07-30T10:49:38.982Z,38.51
2017-07-30T10:50:39.206Z,38.67
2017-07-30T10:51:39.321Z,39.72
2017-07-30T10:52:39.281Z,39.77
2017-07-30T10:53:39.234Z,40.89
2017-07-30T10:54:39.381Z,39.60
2017-07-30T10:55:39.739Z,40.53
2017-07-30T10:56:38.997Z,40.69
2017-07-30T10:57:39.028Z,41.36
2017-07-30T10:58:39.677Z,43.43
2017-07-30T10:59:39.008Z,41.35
2017-07-30T11:00:39.045Z,41.31
2017-07-30T11:01:38.970Z,40.22
2017-07-30T11:02:38.998Z,40.13
2017-07-30T11:03:38.963Z,39.93
2017-07-30T11:04:39.415Z,40.36
2017-07-30T11:05:39.239Z,40.13
2017-07-30T11:06:39.387Z,40.07
2017-07-30T11:07:39.232Z,40.32
2017-07-30T11:08:39.334Z,38.72
2017-07-30T11:09:39.291Z,37.97
2017-07-30T11:10:39.491Z,38.07
2017-07-30T11:11:39.420Z,37.28
2017-07-30T11:12:39.562Z,39.03
2017-07-30T11:13:39.098Z,39.22
2017-07-30T11:14:40.396Z,39.66
2017-07-30T11:15:39.106Z,38.86
2017-07-30T11:16:39.275Z,41.66
2017-07-30T11:17:39.214Z,40.18
2017-07-30T11:18:39.262Z,40.04
2017-07-30T11:19:39.268Z,43.01
2017-07-30T11:20:39.855Z,40.97
2017-07-30T11:21:39.152Z,40.91
2017-07-30T11:22:39.083Z,40.43
2017-07-30T11:23:39.383Z,38.85
2017-07-30T11:24:39.260Z,41.25
2017-07-30T11:25:39.293Z,39.83
2017-07-30T11:26:39.391Z,37.95
2017-07-30T11:27:39.316Z,38.18
2017-07-30T11:28:39.081Z,40.18
2017-07-30T11:29:39.630Z,39.11
2017-07-30T11:30:39.163Z,39.12
2017-07-30T11:31:39.344Z,37.81
2017-07-30T11:32:39.078Z,37.46
2017-07-30T11:33:39.157Z,39.52
2017-07-30T11:34:39.114Z,38.26
2017-07-30T11:35:39.084Z,37.06
2017-07-30T11:36:39.316Z,38.20
2017-07-30T11:37:39.432Z,37.33
2017-07-30T11:38:39.349Z,37.51
2017-07-30T11:39:40.149Z,35.14
2017-07-30T11:40:39.166Z,35.92
2017-07-30T11:41:39.367Z,36.88
2017-07-30T11:42:39.328Z,37.77
2017-07-30T11:43:39.284Z,38.71
2017-07-30T11:44:39.129Z,41.32
2017-07-30T11:45:39.181Z,39.79
2017-07-30T11:46:39.807Z,36.85
2017-07-30T11:47:39.208Z,36.79
2017-07-30T11:48:39.187Z,34.56
2017-07-30T11:49:39.116Z,35.98
2017-07-30T11:50:39.189Z,35.11
2017-07-30T11:51:39.345Z,35.54
2017-07-30T11:52:39.176Z,36.23
2017-07-30T11:53:39.288Z,38.24
2017-07-30T11:54:39.555Z,37.61
2017-07-30T11:55:39.372Z,38.36
2017-07-30T11:56:39.213Z,37.70
2017-07-30T11:57:39.674Z,38.92
2017-07-30T11:58:39.402Z,37.12
2017-07-30T11:59:40.106Z,38.83
2017-07-30T12:00:39.158Z,39.91
2017-07-30T12:01:39.215Z,38.09
2017-07-30T12:02:39.657Z,37.46
2017-07-30T12:03:39.293Z,38.81
2017-07-30T12:04:39.403Z,37.28
2017-07-30T12:05:39.182Z,35.69
2017-07-30T12:06:39.286Z,37.49
2017-07-30T12:07:39.495Z,36.30
2017-07-30T12:08:39.171Z,37.63
2017-07-30T12:09:39.465Z,37.19
2017-07-30T12:10:39.446Z,37.13
2017-07-30T12:11:39.554Z,38.02
2017-07-30T12:12:39.595Z,38.71
2017-07-30T12:13:39.621Z,36.20
2017-07-30T12:14:39.473Z,37.72
2017-07-30T12:15:39.420Z,36.93
2017-07-30T12:16:39.590Z,37.08
2017-07-30T12:17:39.184Z,38.18
2017-07-30T12:18:39.201Z,36.33
2017-07-30T12:19:39.208Z,38.54
2017-07-30T12:20:39.286Z,36.96
2017-07-30T12:21:39.182Z,39.69
2017-07-30T12:22:39.474Z,38.44
2017-07-30T12:23:39.207Z,40.00
2017-07-30T12:24:39.705Z,38.76
2017-07-30T12:25:39.423Z,39.02
2017-07-30T12:26:39.531Z,36.94
2017-07-30T12:27:39.555Z,37.41
2017-07-30T12:28:39.478Z,38.92
2017-07-30T12:29:39.535Z,38.95
2017-07-30T12:30:39.794Z,39.60
2017-07-30T12:31:40.727Z,38.25
2017-07-30T12:32:40.855Z,38.69
2017-07-30T12:33:39.400Z,37.93
2017-07-30T12:34:39.493Z,39.10
2017-07-30T12:35:39.296Z,39.63
2017-07-30T12:36:39.283Z,39.11
2017-07-30T12:37:39.329Z,38.31
2017-07-30T12:38:39.440Z,38.19
2017-07-30T12:39:39.341Z,37.27
2017-07-30T12:40:39.235Z,37.57
2017-07-30T12:41:39.562Z,37.65
2017-07-30T12:42:39.575Z,37.33
2017-07-30T12:43:39.644Z,38.86
2017-07-30T12:44:39.637Z,37.18
2017-07-30T12:45:39.508Z,37.33
2017-07-30T12:46:39.600Z,38.29
2017-07-30T12:47:39.491Z,37.18
2017-07-30T12:48:39.296Z,38.40
2017-07-30T12:49:39.309Z,38.78
2017-07-30T12:50:39.371Z,38.95
2017-07-30T12:51:39.402Z,39.11
2017-07-30T12:52:39.516Z,38.22
2017-07-30T12:53:39.341Z,38.40